sensor_id;sensor_type;location;lat;lon;timestamp;P1;durP1;ratioP1;P2;durP2;ratioP2
66663;SDS011;59683;51.428;-1.994;2023-08-21T02:08:42;32.67;;;9.03;;
66663;SDS011;59683;51.428;-1.994;2023-08-21T02:11:08;32.17;;;9.27;;
66663;SDS011;59683;51.428;-1.994;2023-08-21T02:13:33;30.93;;;9.20;;
66663;SDS011;59683;51.428;-1.994;2023-08-21T02:15:59;32.43;;;8.63;;
66663;SDS011;59683;51.428;-1.994;2023-08-21T02:18:24;31.17;;;8.73;;
66663;SDS011;59683;51.428;-1.994;2023-08-21T02:20:49;32.50;;;8.47;;
66663;SDS011;59683;51.428;-1.994;2023-08-21T02:23:15;34.70;;;8.80;;
66663;SDS011;59683;51.428;-1.994;2023-08-21T02:25:41;35.00;;;9.33;;
66663;SDS011;59683;51.428;-1.994;2023-08-21T02:28:07;30.00;;;8.63;;
66663;SDS011;59683;51.428;-1.994;2023-08-21T02:30:33;43.80;;;9.37;;
66663;SDS011;59683;51.428;-1.994;2023-08-21T02:32:58;33.87;;;9.43;;
66663;SDS011;59683;51.428;-1.994;2023-08-21T02:35:24;30.40;;;8.57;;
66663;SDS011;59683;51.428;-1.994;2023-08-21T02:37:49;37.77;;;8.83;;
66663;SDS011;59683;51.428;-1.994;2023-08-21T02:40:15;34.83;;;9.70;;
66663;SDS011;59683;51.428;-1.994;2023-08-21T02:42:40;33.07;;;8.80;;
66663;SDS011;59683;51.428;-1.994;2023-08-21T02:45:06;30.67;;;8.57;;
66663;SDS011;59683;51.428;-1.994;2023-08-21T02:47:35;33.30;;;8.00;;
66663;SDS011;59683;51.428;-1.994;2023-08-21T02:50:05;26.83;;;8.23;;
66663;SDS011;59683;51.428;-1.994;2023-08-21T02:52:32;25.23;;;8.05;;
66663;SDS011;59683;51.428;-1.994;2023-08-21T02:54:58;36.90;;;8.97;;
66663;SDS011;59683;51.428;-1.994;2023-08-21T02:57:24;31.50;;;9.17;;
66663;SDS011;59683;51.428;-1.994;2023-08-21T02:59:51;29.73;;;8.30;;
66663;SDS011;59683;51.428;-1.994;2023-08-21T03:02:17;32.57;;;8.73;;
66663;SDS011;59683;51.428;-1.994;2023-08-21T03:04:42;37.47;;;8.97;;
66663;SDS011;59683;51.428;-1.994;2023-08-21T03:07:08;27.70;;;8.77;;
66663;SDS011;59683;51.428;-1.994;2023-08-21T03:09:33;34.00;;;8.43;;
66663;SDS011;59683;51.428;-1.994;2023-08-21T03:11:59;31.30;;;9.13;;
66663;SDS011;59683;51.428;-1.994;2023-08-21T03:14:26;38.63;;;9.47;;
66663;SDS011;59683;51.428;-1.994;2023-08-21T03:16:51;43.93;;;10.23;;
66663;SDS011;59683;51.428;-1.994;2023-08-21T03:19:17;42.40;;;10.63;;
66663;SDS011;59683;51.428;-1.994;2023-08-21T03:21:42;41.03;;;10.00;;
66663;SDS011;59683;51.428;-1.994;2023-08-21T03:24:08;43.97;;;11.03;;
66663;SDS011;59683;51.428;-1.994;2023-08-21T03:26:34;47.83;;;11.53;;
66663;SDS011;59683;51.428;-1.994;2023-08-21T03:28:59;34.70;;;9.43;;
66663;SDS011;59683;51.428;-1.994;2023-08-21T03:31:25;42.03;;;10.70;;
66663;SDS011;59683;51.428;-1.994;2023-08-21T03:33:51;28.57;;;9.07;;
66663;SDS011;59683;51.428;-1.994;2023-08-21T03:36:16;37.33;;;10.80;;
66663;SDS011;59683;51.428;-1.994;2023-08-21T03:38:41;39.80;;;10.47;;
66663;SDS011;59683;51.428;-1.994;2023-08-21T03:41:07;41.87;;;11.87;;
66663;SDS011;59683;51.428;-1.994;2023-08-21T03:43:32;44.13;;;10.73;;
66663;SDS011;59683;51.428;-1.994;2023-08-21T03:45:58;40.83;;;11.53;;
66663;SDS011;59683;51.428;-1.994;2023-08-21T03:48:23;33.40;;;10.07;;
66663;SDS011;59683;51.428;-1.994;2023-08-21T03:50:49;27.30;;;9.73;;
66663;SDS011;59683;51.428;-1.994;2023-08-21T03:53:15;27.97;;;9.37;;
66663;SDS011;59683;51.428;-1.994;2023-08-21T03:55:40;34.47;;;9.70;;
66663;SDS011;59683;51.428;-1.994;2023-08-21T03:58:06;31.07;;;9.43;;
66663;SDS011;59683;51.428;-1.994;2023-08-21T04:00:31;28.93;;;8.97;;
66663;SDS011;59683;51.428;-1.994;2023-08-21T04:02:57;31.73;;;9.23;;
66663;SDS011;59683;51.428;-1.994;2023-08-21T04:05:23;33.53;;;10.00;;
66663;SDS011;59683;51.428;-1.994;2023-08-21T04:07:48;32.57;;;9.90;;
66663;SDS011;59683;51.428;-1.994;2023-08-21T04:10:13;32.43;;;9.03;;
66663;SDS011;59683;51.428;-1.994;2023-08-21T04:12:39;37.23;;;9.97;;
66663;SDS011;59683;51.428;-1.994;2023-08-21T04:15:05;31.50;;;9.67;;
66663;SDS011;59683;51.428;-1.994;2023-08-21T04:17:31;29.80;;;8.33;;
66663;SDS011;59683;51.428;-1.994;2023-08-21T04:19:56;28.23;;;9.43;;
66663;SDS011;59683;51.428;-1.994;2023-08-21T04:22:22;27.47;;;8.77;;
66663;SDS011;59683;51.428;-1.994;2023-08-21T04:24:47;26.70;;;8.20;;
66663;SDS011;59683;51.428;-1.994;2023-08-21T04:27:13;23.80;;;9.00;;
66663;SDS011;59683;51.428;-1.994;2023-08-21T04:29:39;25.67;;;8.97;;
66663;SDS011;59683;51.428;-1.994;2023-08-21T04:32:05;25.70;;;9.20;;
66663;SDS011;59683;51.428;-1.994;2023-08-21T04:34:34;24.87;;;8.03;;
66663;SDS011;59683;51.428;-1.994;2023-08-21T04:37:00;22.80;;;7.93;;
66663;SDS011;59683;51.428;-1.994;2023-08-21T04:39:25;25.43;;;8.40;;
66663;SDS011;59683;51.428;-1.994;2023-08-21T04:41:51;20.43;;;7.50;;
66663;SDS011;59683;51.428;-1.994;2023-08-21T04:44:16;22.53;;;7.80;;
66663;SDS011;59683;51.428;-1.994;2023-08-21T04:46:42;24.73;;;8.50;;
66663;SDS011;59683;51.428;-1.994;2023-08-21T04:49:07;20.03;;;7.33;;
66663;SDS011;59683;51.428;-1.994;2023-08-21T04:51:33;17.30;;;7.07;;
66663;SDS011;59683;51.428;-1.994;2023-08-21T04:53:59;21.43;;;7.13;;
66663;SDS011;59683;51.428;-1.994;2023-08-21T04:56:25;24.20;;;6.90;;
66663;SDS011;59683;51.428;-1.994;2023-08-21T04:58:51;18.60;;;6.87;;
66663;SDS011;59683;51.428;-1.994;2023-08-21T05:01:17;21.90;;;7.37;;
66663;SDS011;59683;51.428;-1.994;2023-08-21T05:03:43;17.40;;;6.50;;
66663;SDS011;59683;51.428;-1.994;2023-08-21T05:06:08;19.33;;;7.57;;
66663;SDS011;59683;51.428;-1.994;2023-08-21T05:08:34;19.87;;;6.80;;
66663;SDS011;59683;51.428;-1.994;2023-08-21T05:10:59;23.97;;;7.57;;
66663;SDS011;59683;51.428;-1.994;2023-08-21T05:13:26;15.27;;;6.47;;
66663;SDS011;59683;51.428;-1.994;2023-08-21T05:16:00;17.83;;;6.93;;
66663;SDS011;59683;51.428;-1.994;2023-08-21T05:18:26;20.00;;;6.23;;
66663;SDS011;59683;51.428;-1.994;2023-08-21T05:20:53;20.50;;;6.57;;
66663;SDS011;59683;51.428;-1.994;2023-08-21T05:23:20;22.30;;;7.17;;
66663;SDS011;59683;51.428;-1.994;2023-08-21T05:25:46;18.87;;;7.40;;
66663;SDS011;59683;51.428;-1.994;2023-08-21T05:28:13;22.53;;;7.23;;
66663;SDS011;59683;51.428;-1.994;2023-08-21T05:30:39;18.30;;;6.87;;
66663;SDS011;59683;51.428;-1.994;2023-08-21T05:33:05;17.27;;;7.40;;
66663;SDS011;59683;51.428;-1.994;2023-08-21T05:35:33;21.47;;;6.57;;
66663;SDS011;59683;51.428;-1.994;2023-08-21T05:40:26;17.33;;;7.50;;
66663;SDS011;59683;51.428;-1.994;2023-08-21T05:42:51;22.17;;;6.43;;
66663;SDS011;59683;51.428;-1.994;2023-08-21T05:45:17;17.47;;;6.20;;
66663;SDS011;59683;51.428;-1.994;2023-08-21T05:47:42;20.50;;;6.60;;
66663;SDS011;59683;51.428;-1.994;2023-08-21T05:50:07;21.90;;;6.20;;
66663;SDS011;59683;51.428;-1.994;2023-08-21T05:52:34;18.30;;;6.17;;
66663;SDS011;59683;51.428;-1.994;2023-08-21T05:54:59;16.90;;;6.07;;
66663;SDS011;59683;51.428;-1.994;2023-08-21T05:57:24;17.80;;;5.97;;
66663;SDS011;59683;51.428;-1.994;2023-08-21T05:59:50;17.40;;;5.97;;
66663;SDS011;59683;51.428;-1.994;2023-08-21T06:02:16;17.00;;;5.10;;
66663;SDS011;59683;51.428;-1.994;2023-08-21T06:04:41;16.60;;;4.83;;
66663;SDS011;59683;51.428;-1.994;2023-08-21T06:07:07;12.73;;;5.30;;
66663;SDS011;59683;51.428;-1.994;2023-08-21T06:09:33;18.47;;;5.50;;
66663;SDS011;59683;51.428;-1.994;2023-08-21T06:12:04;13.07;;;4.57;;
66663;SDS011;59683;51.428;-1.994;2023-08-21T06:14:30;12.37;;;5.10;;
66663;SDS011;59683;51.428;-1.994;2023-08-21T06:16:59;12.60;;;4.27;;
66663;SDS011;59683;51.428;-1.994;2023-08-21T06:19:27;12.47;;;4.43;;
66663;SDS011;59683;51.428;-1.994;2023-08-21T06:21:53;12.53;;;3.80;;
66663;SDS011;59683;51.428;-1.994;2023-08-21T06:24:19;10.80;;;4.37;;
66663;SDS011;59683;51.428;-1.994;2023-08-21T06:26:45;12.17;;;3.80;;
66663;SDS011;59683;51.428;-1.994;2023-08-21T06:29:10;12.13;;;3.50;;
66663;SDS011;59683;51.428;-1.994;2023-08-21T06:31:35;9.33;;;2.97;;
66663;SDS011;59683;51.428;-1.994;2023-08-21T06:34:01;11.30;;;2.70;;
66663;SDS011;59683;51.428;-1.994;2023-08-21T06:36:26;8.77;;;3.03;;
66663;SDS011;59683;51.428;-1.994;2023-08-21T06:38:51;11.27;;;2.50;;
66663;SDS011;59683;51.428;-1.994;2023-08-21T06:41:17;7.50;;;1.93;;
66663;SDS011;59683;51.428;-1.994;2023-08-21T06:43:42;10.20;;;2.30;;
66663;SDS011;59683;51.428;-1.994;2023-08-21T06:46:08;8.37;;;2.53;;
66663;SDS011;59683;51.428;-1.994;2023-08-21T06:48:37;5.30;;;2.20;;
66663;SDS011;59683;51.428;-1.994;2023-08-21T06:51:04;8.83;;;2.87;;
66663;SDS011;59683;51.428;-1.994;2023-08-21T06:53:30;7.63;;;2.13;;
66663;SDS011;59683;51.428;-1.994;2023-08-21T06:55:56;6.40;;;1.97;;
66663;SDS011;59683;51.428;-1.994;2023-08-21T06:58:21;4.57;;;2.20;;
66663;SDS011;59683;51.428;-1.994;2023-08-21T07:00:47;11.93;;;2.53;;
66663;SDS011;59683;51.428;-1.994;2023-08-21T07:03:12;9.80;;;2.53;;
66663;SDS011;59683;51.428;-1.994;2023-08-21T07:05:37;8.63;;;1.97;;
66663;SDS011;59683;51.428;-1.994;2023-08-21T07:08:03;5.33;;;2.03;;
66663;SDS011;59683;51.428;-1.994;2023-08-21T07:10:29;7.23;;;2.27;;
66663;SDS011;59683;51.428;-1.994;2023-08-21T07:12:54;5.40;;;1.50;;
66663;SDS011;59683;51.428;-1.994;2023-08-21T07:15:20;7.87;;;1.57;;
66663;SDS011;59683;51.428;-1.994;2023-08-21T07:17:47;2.80;;;0.87;;
66663;SDS011;59683;51.428;-1.994;2023-08-21T07:20:12;5.30;;;1.17;;
66663;SDS011;59683;51.428;-1.994;2023-08-21T07:22:41;8.03;;;1.50;;
66663;SDS011;59683;51.428;-1.994;2023-08-21T07:25:07;6.97;;;1.30;;
66663;SDS011;59683;51.428;-1.994;2023-08-21T07:27:32;4.43;;;1.23;;
66663;SDS011;59683;51.428;-1.994;2023-08-21T07:29:58;4.83;;;1.07;;
66663;SDS011;59683;51.428;-1.994;2023-08-21T07:32:24;5.50;;;0.97;;
66663;SDS011;59683;51.428;-1.994;2023-08-21T07:34:55;7.10;;;1.00;;
66663;SDS011;59683;51.428;-1.994;2023-08-21T07:37:20;4.70;;;1.10;;
66663;SDS011;59683;51.428;-1.994;2023-08-21T07:39:46;3.83;;;0.80;;
66663;SDS011;59683;51.428;-1.994;2023-08-21T07:42:11;4.20;;;1.10;;
66663;SDS011;59683;51.428;-1.994;2023-08-21T07:44:38;2.77;;;0.80;;
66663;SDS011;59683;51.428;-1.994;2023-08-21T07:47:04;4.87;;;1.00;;
66663;SDS011;59683;51.428;-1.994;2023-08-21T07:49:30;5.87;;;0.90;;
66663;SDS011;59683;51.428;-1.994;2023-08-21T07:51:56;4.37;;;0.80;;
66663;SDS011;59683;51.428;-1.994;2023-08-21T07:54:21;3.60;;;0.80;;
66663;SDS011;59683;51.428;-1.994;2023-08-21T07:56:47;5.17;;;1.20;;
66663;SDS011;59683;51.428;-1.994;2023-08-21T07:59:12;4.40;;;0.57;;
66663;SDS011;59683;51.428;-1.994;2023-08-21T08:01:38;4.17;;;0.80;;
66663;SDS011;59683;51.428;-1.994;2023-08-21T08:04:04;3.73;;;0.80;;
66663;SDS011;59683;51.428;-1.994;2023-08-21T08:06:29;4.37;;;0.97;;
66663;SDS011;59683;51.428;-1.994;2023-08-21T08:08:56;3.97;;;0.80;;
66663;SDS011;59683;51.428;-1.994;2023-08-21T08:11:22;3.03;;;1.13;;
66663;SDS011;59683;51.428;-1.994;2023-08-21T15:05:25;1.48;;;0.30;;
66663;SDS011;59683;51.428;-1.994;2023-08-21T15:07:50;3.00;;;0.47;;
66663;SDS011;59683;51.428;-1.994;2023-08-21T15:10:16;1.80;;;0.52;;
66663;SDS011;59683;51.428;-1.994;2023-08-21T15:12:42;2.92;;;0.40;;
66663;SDS011;59683;51.428;-1.994;2023-08-21T15:15:08;2.08;;;0.47;;
66663;SDS011;59683;51.428;-1.994;2023-08-21T15:17:34;1.88;;;0.40;;
66663;SDS011;59683;51.428;-1.994;2023-08-21T15:19:59;3.45;;;0.50;;
66663;SDS011;59683;51.428;-1.994;2023-08-21T15:22:24;2.65;;;0.60;;
66663;SDS011;59683;51.428;-1.994;2023-08-21T15:24:50;2.33;;;0.65;;
66663;SDS011;59683;51.428;-1.994;2023-08-21T15:27:15;6.18;;;1.00;;
66663;SDS011;59683;51.428;-1.994;2023-08-21T15:29:42;3.90;;;0.57;;
66663;SDS011;59683;51.428;-1.994;2023-08-21T15:32:07;2.55;;;0.50;;
66663;SDS011;59683;51.428;-1.994;2023-08-21T15:34:33;3.20;;;0.70;;
66663;SDS011;59683;51.428;-1.994;2023-08-21T15:36:58;2.80;;;0.50;;
66663;SDS011;59683;51.428;-1.994;2023-08-21T15:39:24;3.38;;;0.35;;
66663;SDS011;59683;51.428;-1.994;2023-08-21T15:41:49;2.03;;;0.50;;
66663;SDS011;59683;51.428;-1.994;2023-08-21T15:44:14;5.75;;;0.70;;
66663;SDS011;59683;51.428;-1.994;2023-08-21T15:46:40;2.67;;;0.52;;
66663;SDS011;59683;51.428;-1.994;2023-08-21T15:49:08;2.97;;;0.50;;
66663;SDS011;59683;51.428;-1.994;2023-08-21T15:51:34;4.68;;;1.05;;
66663;SDS011;59683;51.428;-1.994;2023-08-21T15:54:00;3.20;;;0.43;;
66663;SDS011;59683;51.428;-1.994;2023-08-21T15:56:25;2.88;;;0.57;;
66663;SDS011;59683;51.428;-1.994;2023-08-21T15:58:51;1.85;;;0.40;;
66663;SDS011;59683;51.428;-1.994;2023-08-21T16:01:16;1.98;;;0.40;;
66663;SDS011;59683;51.428;-1.994;2023-08-21T16:03:42;4.15;;;0.60;;
66663;SDS011;59683;51.428;-1.994;2023-08-21T16:06:07;4.53;;;1.00;;
66663;SDS011;59683;51.428;-1.994;2023-08-21T16:08:32;3.33;;;0.47;;
66663;SDS011;59683;51.428;-1.994;2023-08-21T16:10:58;6.15;;;0.55;;
66663;SDS011;59683;51.428;-1.994;2023-08-21T16:13:23;3.90;;;0.60;;
66663;SDS011;59683;51.428;-1.994;2023-08-21T16:15:50;4.13;;;0.60;;
66663;SDS011;59683;51.428;-1.994;2023-08-21T16:18:15;2.33;;;0.50;;
66663;SDS011;59683;51.428;-1.994;2023-08-21T16:20:40;3.05;;;0.45;;
66663;SDS011;59683;51.428;-1.994;2023-08-21T16:23:06;6.57;;;1.07;;
66663;SDS011;59683;51.428;-1.994;2023-08-21T16:25:31;1.37;;;0.50;;
66663;SDS011;59683;51.428;-1.994;2023-08-21T16:27:56;10.77;;;0.90;;
66663;SDS011;59683;51.428;-1.994;2023-08-21T16:30:22;2.83;;;0.50;;
66663;SDS011;59683;51.428;-1.994;2023-08-21T16:32:47;3.40;;;0.67;;
66663;SDS011;59683;51.428;-1.994;2023-08-21T16:35:13;3.87;;;1.10;;
66663;SDS011;59683;51.428;-1.994;2023-08-21T16:37:38;2.07;;;0.50;;
66663;SDS011;59683;51.428;-1.994;2023-08-21T16:40:04;4.73;;;0.70;;
66663;SDS011;59683;51.428;-1.994;2023-08-21T16:42:33;2.57;;;0.57;;
66663;SDS011;59683;51.428;-1.994;2023-08-21T16:44:58;4.13;;;1.33;;
66663;SDS011;59683;51.428;-1.994;2023-08-21T16:47:24;5.20;;;0.67;;
66663;SDS011;59683;51.428;-1.994;2023-08-21T16:49:49;1.70;;;0.67;;
66663;SDS011;59683;51.428;-1.994;2023-08-21T16:52:15;3.63;;;0.80;;
66663;SDS011;59683;51.428;-1.994;2023-08-21T16:54:43;9.20;;;0.60;;
66663;SDS011;59683;51.428;-1.994;2023-08-21T16:57:08;5.77;;;0.77;;
66663;SDS011;59683;51.428;-1.994;2023-08-21T16:59:35;2.00;;;0.50;;
66663;SDS011;59683;51.428;-1.994;2023-08-21T17:02:00;2.97;;;0.43;;
66663;SDS011;59683;51.428;-1.994;2023-08-21T17:04:26;5.20;;;0.60;;
66663;SDS011;59683;51.428;-1.994;2023-08-21T17:06:51;3.20;;;0.80;;
66663;SDS011;59683;51.428;-1.994;2023-08-21T17:09:16;1.73;;;0.50;;
66663;SDS011;59683;51.428;-1.994;2023-08-21T17:11:42;2.07;;;0.53;;
66663;SDS011;59683;51.428;-1.994;2023-08-21T17:14:07;4.23;;;0.50;;
66663;SDS011;59683;51.428;-1.994;2023-08-21T17:16:32;3.63;;;0.60;;
66663;SDS011;59683;51.428;-1.994;2023-08-21T17:18:58;1.40;;;0.43;;
66663;SDS011;59683;51.428;-1.994;2023-08-21T17:21:23;4.27;;;0.60;;
66663;SDS011;59683;51.428;-1.994;2023-08-21T17:23:49;3.67;;;0.80;;
66663;SDS011;59683;51.428;-1.994;2023-08-21T17:26:14;1.70;;;0.60;;
66663;SDS011;59683;51.428;-1.994;2023-08-21T17:28:43;4.70;;;1.37;;
66663;SDS011;59683;51.428;-1.994;2023-08-21T17:31:08;3.90;;;0.60;;
66663;SDS011;59683;51.428;-1.994;2023-08-21T17:33:33;2.90;;;0.63;;
66663;SDS011;59683;51.428;-1.994;2023-08-21T17:36:02;3.80;;;0.70;;
66663;SDS011;59683;51.428;-1.994;2023-08-21T17:38:28;3.67;;;0.53;;
66663;SDS011;59683;51.428;-1.994;2023-08-21T17:40:53;1.30;;;0.50;;
66663;SDS011;59683;51.428;-1.994;2023-08-21T17:43:19;1.77;;;0.63;;
66663;SDS011;59683;51.428;-1.994;2023-08-21T17:45:44;5.63;;;1.07;;
66663;SDS011;59683;51.428;-1.994;2023-08-21T17:48:11;2.00;;;1.10;;
66663;SDS011;59683;51.428;-1.994;2023-08-21T17:50:36;2.27;;;0.50;;
66663;SDS011;59683;51.428;-1.994;2023-08-21T17:53:02;5.63;;;0.90;;
66663;SDS011;59683;51.428;-1.994;2023-08-21T17:55:28;4.17;;;0.77;;
66663;SDS011;59683;51.428;-1.994;2023-08-21T17:57:54;7.30;;;1.83;;
66663;SDS011;59683;51.428;-1.994;2023-08-21T18:00:22;3.90;;;0.63;;
66663;SDS011;59683;51.428;-1.994;2023-08-21T18:02:48;4.07;;;0.73;;
66663;SDS011;59683;51.428;-1.994;2023-08-21T18:05:13;4.07;;;0.80;;
66663;SDS011;59683;51.428;-1.994;2023-08-21T18:07:39;4.87;;;0.80;;
66663;SDS011;59683;51.428;-1.994;2023-08-21T18:10:05;2.60;;;0.80;;
66663;SDS011;59683;51.428;-1.994;2023-08-21T18:12:33;4.90;;;1.07;;
66663;SDS011;59683;51.428;-1.994;2023-08-21T18:14:59;2.63;;;0.70;;
66663;SDS011;59683;51.428;-1.994;2023-08-21T18:17:25;9.50;;;1.60;;
66663;SDS011;59683;51.428;-1.994;2023-08-21T18:19:50;7.67;;;1.20;;
66663;SDS011;59683;51.428;-1.994;2023-08-21T18:22:15;4.03;;;1.00;;
66663;SDS011;59683;51.428;-1.994;2023-08-21T18:24:41;4.87;;;0.80;;
66663;SDS011;59683;51.428;-1.994;2023-08-21T18:27:07;3.67;;;1.00;;
66663;SDS011;59683;51.428;-1.994;2023-08-21T18:29:34;6.33;;;0.97;;
66663;SDS011;59683;51.428;-1.994;2023-08-21T18:32:03;4.90;;;1.67;;
66663;SDS011;59683;51.428;-1.994;2023-08-21T18:34:28;4.77;;;1.00;;
66663;SDS011;59683;51.428;-1.994;2023-08-21T18:36:54;4.53;;;0.90;;
66663;SDS011;59683;51.428;-1.994;2023-08-21T18:39:19;4.97;;;1.23;;
66663;SDS011;59683;51.428;-1.994;2023-08-21T18:41:45;5.17;;;0.90;;
66663;SDS011;59683;51.428;-1.994;2023-08-21T18:44:10;3.30;;;0.83;;
66663;SDS011;59683;51.428;-1.994;2023-08-21T18:46:35;3.73;;;0.90;;
66663;SDS011;59683;51.428;-1.994;2023-08-21T18:49:01;6.60;;;1.10;;
66663;SDS011;59683;51.428;-1.994;2023-08-21T18:51:26;4.37;;;1.10;;
66663;SDS011;59683;51.428;-1.994;2023-08-21T18:53:52;6.97;;;1.00;;
66663;SDS011;59683;51.428;-1.994;2023-08-21T18:56:17;3.40;;;1.00;;
66663;SDS011;59683;51.428;-1.994;2023-08-21T18:58:42;2.93;;;1.23;;
66663;SDS011;59683;51.428;-1.994;2023-08-21T19:01:08;5.33;;;1.20;;
66663;SDS011;59683;51.428;-1.994;2023-08-21T19:03:33;3.57;;;1.23;;
66663;SDS011;59683;51.428;-1.994;2023-08-21T19:05:59;6.93;;;1.53;;
66663;SDS011;59683;51.428;-1.994;2023-08-21T19:08:24;4.33;;;1.30;;
66663;SDS011;59683;51.428;-1.994;2023-08-21T19:10:50;6.13;;;1.53;;
66663;SDS011;59683;51.428;-1.994;2023-08-21T19:13:16;7.83;;;1.80;;
66663;SDS011;59683;51.428;-1.994;2023-08-21T19:15:42;5.13;;;1.50;;
66663;SDS011;59683;51.428;-1.994;2023-08-21T19:18:07;5.97;;;1.40;;
66663;SDS011;59683;51.428;-1.994;2023-08-21T19:20:32;6.37;;;1.97;;
66663;SDS011;59683;51.428;-1.994;2023-08-21T19:22:58;3.97;;;1.60;;
66663;SDS011;59683;51.428;-1.994;2023-08-21T19:25:23;7.00;;;1.80;;
66663;SDS011;59683;51.428;-1.994;2023-08-21T19:27:49;7.40;;;1.80;;
66663;SDS011;59683;51.428;-1.994;2023-08-21T19:30:14;7.67;;;2.03;;
66663;SDS011;59683;51.428;-1.994;2023-08-21T19:32:40;6.17;;;2.40;;
66663;SDS011;59683;51.428;-1.994;2023-08-21T19:35:07;5.20;;;1.90;;
66663;SDS011;59683;51.428;-1.994;2023-08-21T19:37:34;6.97;;;1.70;;
66663;SDS011;59683;51.428;-1.994;2023-08-21T19:39:59;3.47;;;1.00;;
66663;SDS011;59683;51.428;-1.994;2023-08-21T19:42:25;4.13;;;1.70;;
66663;SDS011;59683;51.428;-1.994;2023-08-21T19:44:51;4.17;;;1.40;;
66663;SDS011;59683;51.428;-1.994;2023-08-21T19:47:16;7.30;;;1.50;;
66663;SDS011;59683;51.428;-1.994;2023-08-21T19:49:42;2.80;;;1.37;;
66663;SDS011;59683;51.428;-1.994;2023-08-21T19:52:07;4.27;;;1.30;;
66663;SDS011;59683;51.428;-1.994;2023-08-21T19:54:33;3.17;;;1.63;;
66663;SDS011;59683;51.428;-1.994;2023-08-21T19:56:59;4.37;;;1.57;;
66663;SDS011;59683;51.428;-1.994;2023-08-21T19:59:24;4.50;;;2.00;;
66663;SDS011;59683;51.428;-1.994;2023-08-21T20:01:50;3.53;;;1.37;;
66663;SDS011;59683;51.428;-1.994;2023-08-21T20:04:16;5.73;;;1.63;;
66663;SDS011;59683;51.428;-1.994;2023-08-21T20:06:41;5.30;;;1.60;;
66663;SDS011;59683;51.428;-1.994;2023-08-21T20:09:07;9.10;;;1.50;;
66663;SDS011;59683;51.428;-1.994;2023-08-21T20:11:32;8.07;;;2.00;;
66663;SDS011;59683;51.428;-1.994;2023-08-21T20:13:58;6.03;;;1.93;;
66663;SDS011;59683;51.428;-1.994;2023-08-21T20:16:24;7.17;;;2.03;;
66663;SDS011;59683;51.428;-1.994;2023-08-21T20:18:50;7.47;;;1.90;;
66663;SDS011;59683;51.428;-1.994;2023-08-21T20:21:15;4.67;;;1.97;;
66663;SDS011;59683;51.428;-1.994;2023-08-21T20:23:42;7.33;;;2.07;;
66663;SDS011;59683;51.428;-1.994;2023-08-21T20:26:08;8.10;;;2.57;;
66663;SDS011;59683;51.428;-1.994;2023-08-21T20:28:33;7.53;;;2.33;;
66663;SDS011;59683;51.428;-1.994;2023-08-21T20:30:59;7.17;;;2.13;;
66663;SDS011;59683;51.428;-1.994;2023-08-21T20:33:26;11.60;;;2.47;;
66663;SDS011;59683;51.428;-1.994;2023-08-21T20:35:52;9.50;;;2.10;;
66663;SDS011;59683;51.428;-1.994;2023-08-21T20:38:18;8.43;;;1.80;;
66663;SDS011;59683;51.428;-1.994;2023-08-21T20:40:43;3.70;;;1.73;;
66663;SDS011;59683;51.428;-1.994;2023-08-21T20:43:08;8.97;;;2.20;;
66663;SDS011;59683;51.428;-1.994;2023-08-21T20:45:34;10.83;;;2.40;;
66663;SDS011;59683;51.428;-1.994;2023-08-21T20:47:59;7.07;;;2.20;;
66663;SDS011;59683;51.428;-1.994;2023-08-21T20:50:25;10.23;;;2.37;;
66663;SDS011;59683;51.428;-1.994;2023-08-21T20:52:50;6.10;;;2.33;;
66663;SDS011;59683;51.428;-1.994;2023-08-21T20:55:16;7.90;;;2.43;;
66663;SDS011;59683;51.428;-1.994;2023-08-21T20:57:42;8.47;;;2.73;;
66663;SDS011;59683;51.428;-1.994;2023-08-21T21:00:08;6.27;;;2.47;;
66663;SDS011;59683;51.428;-1.994;2023-08-21T21:02:34;9.47;;;2.77;;
66663;SDS011;59683;51.428;-1.994;2023-08-21T21:04:59;5.47;;;2.50;;
66663;SDS011;59683;51.428;-1.994;2023-08-21T21:07:26;6.13;;;2.10;;
